New Castle, Kentucky
Current Conditions -  °F | °C
As of 9:53 PM on Thursday 27 Nov 2014 (Local Time) from KFFT Reporting Station
Overcast Overcast  
Wind Chill: 22°   Ceiling: 3800
Heat Index: 28°   Visibility: 10mi
Dew Point: 19°   Wind: 6mph
Humidity: 69%   Direction: 280°W
Pressure: 30.41"   Gusts: NA
Location:  38.43°N, 85.17°W
Report Text: KFFT 280253Z AUTO 28005KT 10SM OVC038 M02/M07 A3041 RMK AO2 SLP306 T10221072 51010
Loading
Personal Weather Stations






























Interactive Weather Map New forecast layout! Learn more

10-Day Weather Forecast

Advertisements
Track Severe Weather on mobile